WXM80 ListenWXM80 Stop

You find our weather info also at:

UK Metoffice

WeatherCloud

Weather Underground

Northeastern Weather Network

AWEKAS

Citizen Weather Observer Program (CWOP)

HAMweather, WeatherForYou, PWS Weather


Weather Underground History page Text

Daily Summary for August 1, 2017 Units:  Both    English   Metric
« Previous Day
Next Day »
Daily Weekly Monthly Yearly Custom
  High: Low: Average:
Temperature: 94.3 °F /  34.6 °C 66.0 °F /  18.9 °C 79.4 °F /  26.3 °C
Dew Point: 71.9 °F /  22.2 °C 61.5 °F /  16.4 °C 66.3 °F /  19.1 °C
Humidity: 96 % 36 % 68 %
Wind Speed: 4.8 mph /  7.7 km/h - 0.7 mph /  1.1 km/h
Wind Gust: 6.9 mph /  11.1 km/h - -
Wind:- - SSW
Pressure: 30.01 in /  1016.1 hPa 29.94 in /  1013.8 hPa -
Precipitation: 0.00 in /  0 mm    
Historical Graphs
 
 
Tabular Data for August 1, 2017
Time Temperature Dew Point Pressure Wind Wind Speed Wind Gust Humidity Rainfall Rate (Hourly)
00:00 72.4 °F /  22.4 °C 63.3 °F /  17.4 °C 29.97 in /  1014.8 hPa Calm     73 % 0.00 in /  0 mm
00:05 72.4 °F /  22.4 °C 63.3 °F /  17.4 °C 29.96 in /  1014.4 hPa West 0.3 mph /  0.5 km/h 1.2 mph /  1.9 km/h 73 % 0.00 in /  0 mm
00:10 72.3 °F /  22.4 °C 63.2 °F /  17.3 °C 29.97 in /  1014.8 hPa West 0.2 mph /  0.3 km/h 2.0 mph /  3.2 km/h 73 % 0.00 in /  0 mm
00:15 72.3 °F /  22.4 °C 63.5 °F /  17.5 °C 29.97 in /  1014.8 hPa Calm   2.3 mph /  3.7 km/h 74 % 0.00 in /  0 mm
00:20 72.2 °F /  22.3 °C 63.4 °F /  17.4 °C 29.96 in /  1014.4 hPa WSW 0.2 mph /  0.3 km/h 1.2 mph /  1.9 km/h 74 % 0.00 in /  0 mm
00:25 72.2 °F /  22.3 °C 63.4 °F /  17.4 °C 29.96 in /  1014.4 hPa WSW 0.3 mph /  0.5 km/h 1.2 mph /  1.9 km/h 74 % 0.00 in /  0 mm
00:30 72.1 °F /  22.3 °C 63.7 °F /  17.6 °C 29.96 in /  1014.4 hPa WSW 0.7 mph /  1.1 km/h 3.5 mph /  5.6 km/h 75 % 0.00 in /  0 mm
00:35 72.1 °F /  22.3 °C 63.7 °F /  17.6 °C 29.96 in /  1014.4 hPa WSW 0.1 mph /  0.2 km/h 1.2 mph /  1.9 km/h 75 % 0.00 in /  0 mm
00:40 72.0 °F /  22.2 °C 63.6 °F /  17.6 °C 29.96 in /  1014.4 hPa Calm   1.2 mph /  1.9 km/h 75 % 0.00 in /  0 mm
00:45 71.9 °F /  22.2 °C 63.5 °F /  17.5 °C 29.96 in /  1014.4 hPa WSW 0.7 mph /  1.1 km/h 2.3 mph /  3.7 km/h 75 % 0.00 in /  0 mm
00:50 71.9 °F /  22.2 °C 63.5 °F /  17.5 °C 29.96 in /  1014.4 hPa SW 1.2 mph /  1.9 km/h 3.5 mph /  5.6 km/h 75 % 0.00 in /  0 mm
00:55 71.8 °F /  22.1 °C 63.8 °F /  17.7 °C 29.96 in /  1014.4 hPa SW 0.4 mph /  0.6 km/h 2.3 mph /  3.7 km/h 76 % 0.00 in /  0 mm
01:00 71.8 °F /  22.1 °C 63.8 °F /  17.7 °C 29.96 in /  1014.4 hPa Calm     76 % 0.00 in /  0 mm
01:05 71.8 °F /  22.1 °C 63.8 °F /  17.7 °C 29.96 in /  1014.4 hPa Calm     76 % 0.00 in /  0 mm
01:10 71.7 °F /  22.1 °C 63.7 °F /  17.6 °C 29.96 in /  1014.4 hPa Calm   1.2 mph /  1.9 km/h 76 % 0.00 in /  0 mm
01:15 71.7 °F /  22.1 °C 64.1 °F /  17.8 °C 29.96 in /  1014.4 hPa Calm   1.2 mph /  1.9 km/h 77 % 0.00 in /  0 mm
01:20 71.7 °F /  22.1 °C 64.1 °F /  17.8 °C 29.96 in /  1014.4 hPa WSW 2.3 mph /  3.7 km/h 4.0 mph /  6.4 km/h 77 % 0.00 in /  0 mm
01:25 71.7 °F /  22.1 °C 64.5 °F /  18.1 °C 29.95 in /  1014.1 hPa SW 1.7 mph /  2.7 km/h 2.3 mph /  3.7 km/h 78 % 0.00 in /  0 mm
01:30 71.7 °F /  22.1 °C 64.8 °F /  18.2 °C 29.96 in /  1014.4 hPa SW 0.4 mph /  0.6 km/h 1.2 mph /  1.9 km/h 79 % 0.00 in /  0 mm
01:36 71.6 °F /  22 °C 64.7 °F /  18.2 °C 29.96 in /  1014.4 hPa SW 0.1 mph /  0.2 km/h 1.2 mph /  1.9 km/h 79 % 0.00 in /  0 mm
01:41 71.6 °F /  22 °C 64.7 °F /  18.2 °C 29.96 in /  1014.4 hPa Calm   2.0 mph /  3.2 km/h 79 % 0.00 in /  0 mm
01:46 71.6 °F /  22 °C 64.7 °F /  18.2 °C 29.96 in /  1014.4 hPa Calm   3.0 mph /  4.8 km/h 79 % 0.00 in /  0 mm
01:51 71.6 °F /  22 °C 64.7 °F /  18.2 °C 29.96 in /  1014.4 hPa Calm     79 % 0.00 in /  0 mm
01:56 71.5 °F /  21.9 °C 65.0 °F /  18.3 °C 29.96 in /  1014.4 hPa Calm     80 % 0.00 in /  0 mm
02:01 71.3 °F /  21.8 °C 64.8 °F /  18.2 °C 29.96 in /  1014.4 hPa Calm     80 % 0.00 in /  0 mm
02:06 71.3 °F /  21.8 °C 64.8 °F /  18.2 °C 29.96 in /  1014.4 hPa Calm     80 % 0.00 in /  0 mm
02:11 71.1 °F /  21.7 °C 64.6 °F /  18.1 °C 29.96 in /  1014.4 hPa Calm     80 % 0.00 in /  0 mm
02:16 71.0 °F /  21.7 °C 64.2 °F /  17.9 °C 29.96 in /  1014.4 hPa Calm     79 % 0.00 in /  0 mm
02:21 70.8 °F /  21.6 °C 64.0 °F /  17.8 °C 29.96 in /  1014.4 hPa Calm     79 % 0.00 in /  0 mm
02:26 70.7 °F /  21.5 °C 64.2 °F /  17.9 °C 29.96 in /  1014.4 hPa Calm     80 % 0.00 in /  0 mm
02:28 70.7 °F /  21.5 °C 64.2 °F /  17.9 °C 29.96 in /  1014.4 hPa Calm     80 % 0.00 in /  0 mm
02:33 70.5 °F /  21.4 °C 64.0 °F /  17.8 °C 29.96 in /  1014.4 hPa Calm     80 % 0.00 in /  0 mm
02:38 70.3 °F /  21.3 °C 64.2 °F /  17.9 °C 29.96 in /  1014.4 hPa Calm     81 % 0.00 in /  0 mm
02:48 70.1 °F /  21.2 °C 64.3 °F /  17.9 °C 29.96 in /  1014.4 hPa WSW 1.3 mph /  2.1 km/h 3.5 mph /  5.6 km/h 82 % 0.00 in /  0 mm
02:53 70.0 °F /  21.1 °C 64.6 °F /  18.1 °C 29.96 in /  1014.4 hPa West 0.2 mph /  0.3 km/h 2.3 mph /  3.7 km/h 83 % 0.00 in /  0 mm
02:58 69.8 °F /  21 °C 64.4 °F /  18 °C 29.96 in /  1014.4 hPa Calm     83 % 0.00 in /  0 mm
03:04 69.7 °F /  20.9 °C 64.6 °F /  18.1 °C 29.96 in /  1014.4 hPa WSW 1.2 mph /  1.9 km/h 2.3 mph /  3.7 km/h 84 % 0.00 in /  0 mm
03:09 69.6 °F /  20.9 °C 64.5 °F /  18.1 °C 29.96 in /  1014.4 hPa Calm     84 % 0.00 in /  0 mm
03:14 69.5 °F /  20.8 °C 64.5 °F /  18.1 °C 29.96 in /  1014.4 hPa Calm   1.2 mph /  1.9 km/h 84 % 0.00 in /  0 mm
03:19 69.4 °F /  20.8 °C 64.7 °F /  18.2 °C 29.97 in /  1014.8 hPa Calm     85 % 0.00 in /  0 mm
03:22 69.3 °F /  20.7 °C 64.6 °F /  18.1 °C 29.96 in /  1014.4 hPa Calm     85 % 0.00 in /  0 mm
03:27 69.2 °F /  20.7 °C 64.8 °F /  18.2 °C 29.97 in /  1014.8 hPa Calm     86 % 0.00 in /  0 mm
03:32 69.1 °F /  20.6 °C 64.7 °F /  18.2 °C 29.97 in /  1014.8 hPa Calm     86 % 0.00 in /  0 mm
03:37 68.9 °F /  20.5 °C 64.5 °F /  18.1 °C 29.96 in /  1014.4 hPa Calm     86 % 0.00 in /  0 mm
03:42 68.8 °F /  20.4 °C 64.4 °F /  18 °C 29.96 in /  1014.4 hPa Calm     86 % 0.00 in /  0 mm
03:47 68.7 °F /  20.4 °C 64.3 °F /  17.9 °C 29.96 in /  1014.4 hPa Calm     86 % 0.00 in /  0 mm
03:52 68.6 °F /  20.3 °C 64.2 °F /  17.9 °C 29.96 in /  1014.4 hPa Calm     86 % 0.00 in /  0 mm
03:57 68.5 °F /  20.3 °C 64.5 °F /  18.1 °C 29.96 in /  1014.4 hPa Calm     87 % 0.00 in /  0 mm
04:02 68.3 °F /  20.2 °C 64.3 °F /  17.9 °C 29.96 in /  1014.4 hPa Calm     87 % 0.00 in /  0 mm
04:07 68.2 °F /  20.1 °C 64.2 °F /  17.9 °C 29.96 in /  1014.4 hPa Calm     87 % 0.00 in /  0 mm
04:13 68.1 °F /  20.1 °C 64.1 °F /  17.8 °C 29.96 in /  1014.4 hPa Calm     87 % 0.00 in /  0 mm
04:18 68.0 °F /  20 °C 64.0 °F /  17.8 °C 29.96 in /  1014.4 hPa Calm     87 % 0.00 in /  0 mm
04:23 67.9 °F /  19.9 °C 64.2 °F /  17.9 °C 29.96 in /  1014.4 hPa Calm     88 % 0.00 in /  0 mm
04:28 67.8 °F /  19.9 °C 64.1 °F /  17.8 °C 29.97 in /  1014.8 hPa Calm     88 % 0.00 in /  0 mm
04:33 67.7 °F /  19.8 °C 64.0 °F /  17.8 °C 29.97 in /  1014.8 hPa Calm     88 % 0.00 in /  0 mm
04:38 67.6 °F /  19.8 °C 64.2 °F /  17.9 °C 29.97 in /  1014.8 hPa Calm     89 % 0.00 in /  0 mm
04:43 67.5 °F /  19.7 °C 63.8 °F /  17.7 °C 29.97 in /  1014.8 hPa Calm     88 % 0.00 in /  0 mm
04:48 67.4 °F /  19.7 °C 64.0 °F /  17.8 °C 29.97 in /  1014.8 hPa Calm     89 % 0.00 in /  0 mm
04:53 67.3 °F /  19.6 °C 63.9 °F /  17.7 °C 29.97 in /  1014.8 hPa Calm     89 % 0.00 in /  0 mm
04:58 67.2 °F /  19.6 °C 63.8 °F /  17.7 °C 29.97 in /  1014.8 hPa Calm     89 % 0.00 in /  0 mm
05:03 67.1 °F /  19.5 °C 63.7 °F /  17.6 °C 29.97 in /  1014.8 hPa Calm     89 % 0.00 in /  0 mm
05:08 67.0 °F /  19.4 °C 64.0 °F /  17.8 °C 29.98 in /  1015.1 hPa Calm     90 % 0.00 in /  0 mm
05:13 66.8 °F /  19.3 °C 63.5 °F /  17.5 °C 29.97 in /  1014.8 hPa Calm     89 % 0.00 in /  0 mm
05:18 66.8 °F /  19.3 °C 63.8 °F /  17.7 °C 29.97 in /  1014.8 hPa Calm     90 % 0.00 in /  0 mm
05:23 66.7 °F /  19.3 °C 63.7 °F /  17.6 °C 29.97 in /  1014.8 hPa Calm     90 % 0.00 in /  0 mm
05:28 66.7 °F /  19.3 °C 63.7 °F /  17.6 °C 29.97 in /  1014.8 hPa Calm     90 % 0.00 in /  0 mm
05:33 66.6 °F /  19.2 °C 63.6 °F /  17.6 °C 29.97 in /  1014.8 hPa Calm     90 % 0.00 in /  0 mm
05:39 66.5 °F /  19.2 °C 63.5 °F /  17.5 °C 29.97 in /  1014.8 hPa Calm     90 % 0.00 in /  0 mm
05:44 66.4 °F /  19.1 °C 63.4 °F /  17.4 °C 29.97 in /  1014.8 hPa Calm     90 % 0.00 in /  0 mm
05:49 66.3 °F /  19.1 °C 63.3 °F /  17.4 °C 29.97 in /  1014.8 hPa Calm     90 % 0.00 in /  0 mm
05:54 66.2 °F /  19 °C 63.2 °F /  17.3 °C 29.97 in /  1014.8 hPa Calm     90 % 0.00 in /  0 mm
05:59 66.2 °F /  19 °C 63.2 °F /  17.3 °C 29.97 in /  1014.8 hPa Calm     90 % 0.00 in /  0 mm
06:04 66.1 °F /  18.9 °C 63.1 °F /  17.3 °C 29.98 in /  1015.1 hPa Calm     90 % 0.00 in /  0 mm
06:09 66.1 °F /  18.9 °C 63.1 °F /  17.3 °C 29.98 in /  1015.1 hPa Calm     90 % 0.00 in /  0 mm
06:14 66.0 °F /  18.9 °C 63.3 °F /  17.4 °C 29.98 in /  1015.1 hPa Calm     91 % 0.00 in /  0 mm
06:19 66.0 °F /  18.9 °C 63.3 °F /  17.4 °C 29.98 in /  1015.1 hPa Calm     91 % 0.00 in /  0 mm
06:24 66.0 °F /  18.9 °C 63.3 °F /  17.4 °C 29.98 in /  1015.1 hPa Calm     91 % 0.00 in /  0 mm
06:25 66.0 °F /  18.9 °C 63.3 °F /  17.4 °C 29.98 in /  1015.1 hPa Calm     91 % 0.00 in /  0 mm
06:30 66.0 °F /  18.9 °C 63.6 °F /  17.6 °C 29.98 in /  1015.1 hPa Calm     92 % 0.00 in /  0 mm
06:32 66.1 °F /  18.9 °C 63.7 °F /  17.6 °C 29.99 in /  1015.5 hPa Calm     92 % 0.00 in /  0 mm
06:37 66.2 °F /  19 °C 64.1 °F /  17.8 °C 29.99 in /  1015.5 hPa Calm     93 % 0.00 in /  0 mm
06:42 66.3 °F /  19.1 °C 64.2 °F /  17.9 °C 29.98 in /  1015.1 hPa Calm     93 % 0.00 in /  0 mm
06:47 66.5 °F /  19.2 °C 64.4 °F /  18 °C 29.99 in /  1015.5 hPa Calm     93 % 0.00 in /  0 mm
06:52 66.7 °F /  19.3 °C 64.9 °F /  18.3 °C 29.99 in /  1015.5 hPa Calm     94 % 0.00 in /  0 mm
06:57 67.1 °F /  19.5 °C 65.6 °F /  18.7 °C 29.99 in /  1015.5 hPa Calm     95 % 0.00 in /  0 mm
07:02 67.4 °F /  19.7 °C 65.9 °F /  18.8 °C 29.99 in /  1015.5 hPa Calm     95 % 0.00 in /  0 mm
07:07 67.8 °F /  19.9 °C 66.3 °F /  19.1 °C 29.99 in /  1015.5 hPa Calm   1.2 mph /  1.9 km/h 95 % 0.00 in /  0 mm
07:12 68.3 °F /  20.2 °C 67.1 °F /  19.5 °C 29.99 in /  1015.5 hPa Calm   1.2 mph /  1.9 km/h 96 % 0.00 in /  0 mm
07:17 68.8 °F /  20.4 °C 67.6 °F /  19.8 °C 29.99 in /  1015.5 hPa NW 0.5 mph /  0.8 km/h 2.0 mph /  3.2 km/h 96 % 0.00 in /  0 mm
07:22 69.3 °F /  20.7 °C 68.1 °F /  20.1 °C 29.99 in /  1015.5 hPa NW 1.1 mph /  1.8 km/h 3.5 mph /  5.6 km/h 96 % 0.00 in /  0 mm
07:27 69.8 °F /  21 °C 68.6 °F /  20.3 °C 29.99 in /  1015.5 hPa WNW 0.5 mph /  0.8 km/h 1.2 mph /  1.9 km/h 96 % 0.00 in /  0 mm
07:32 70.1 °F /  21.2 °C 68.9 °F /  20.5 °C 29.99 in /  1015.5 hPa NW 0.9 mph /  1.4 km/h 3.0 mph /  4.8 km/h 96 % 0.00 in /  0 mm
07:37 70.4 °F /  21.3 °C 69.2 °F /  20.7 °C 29.99 in /  1015.5 hPa NW 0.1 mph /  0.2 km/h 1.2 mph /  1.9 km/h 96 % 0.00 in /  0 mm
07:42 70.6 °F /  21.4 °C 69.1 °F /  20.6 °C 29.99 in /  1015.5 hPa NW 0.3 mph /  0.5 km/h 2.3 mph /  3.7 km/h 95 % 0.00 in /  0 mm
07:47 70.8 °F /  21.6 °C 69.3 °F /  20.7 °C 30.00 in /  1015.8 hPa NW 0.1 mph /  0.2 km/h 1.2 mph /  1.9 km/h 95 % 0.00 in /  0 mm
07:52 71.0 °F /  21.7 °C 69.2 °F /  20.7 °C 30.00 in /  1015.8 hPa NW 1.4 mph /  2.3 km/h 3.0 mph /  4.8 km/h 94 % 0.00 in /  0 mm
07:57 71.1 °F /  21.7 °C 69.3 °F /  20.7 °C 30.00 in /  1015.8 hPa Calm     94 % 0.00 in /  0 mm
08:02 71.3 °F /  21.8 °C 69.2 °F /  20.7 °C 30.00 in /  1015.8 hPa West 0.3 mph /  0.5 km/h 1.0 mph /  1.6 km/h 93 % 0.00 in /  0 mm
08:07 71.4 °F /  21.9 °C 69.0 °F /  20.6 °C 30.00 in /  1015.8 hPa Calm   2.3 mph /  3.7 km/h 92 % 0.00 in /  0 mm
08:12 71.5 °F /  21.9 °C 69.1 °F /  20.6 °C 30.00 in /  1015.8 hPa Calm   1.2 mph /  1.9 km/h 92 % 0.00 in /  0 mm
08:17 71.6 °F /  22 °C 68.8 °F /  20.4 °C 30.00 in /  1015.8 hPa NW 0.4 mph /  0.6 km/h 2.3 mph /  3.7 km/h 91 % 0.00 in /  0 mm
08:22 71.6 °F /  22 °C 68.5 °F /  20.3 °C 30.00 in /  1015.8 hPa WNW 0.1 mph /  0.2 km/h 2.3 mph /  3.7 km/h 90 % 0.00 in /  0 mm
08:27 71.8 °F /  22.1 °C 68.4 °F /  20.2 °C 30.00 in /  1015.8 hPa WNW 0.4 mph /  0.6 km/h 3.5 mph /  5.6 km/h 89 % 0.00 in /  0 mm
08:33 71.9 °F /  22.2 °C 68.5 °F /  20.3 °C 30.00 in /  1015.8 hPa WNW 0.5 mph /  0.8 km/h 1.2 mph /  1.9 km/h 89 % 0.00 in /  0 mm
08:38 72.1 °F /  22.3 °C 68.0 °F /  20 °C 30.00 in /  1015.8 hPa NNE 0.4 mph /  0.6 km/h 2.3 mph /  3.7 km/h 87 % 0.00 in /  0 mm
08:43 72.4 °F /  22.4 °C 68.3 °F /  20.2 °C 30.00 in /  1015.8 hPa NE 0.8 mph /  1.3 km/h 1.2 mph /  1.9 km/h 87 % 0.00 in /  0 mm
08:48 72.6 °F /  22.6 °C 68.5 °F /  20.3 °C 30.00 in /  1015.8 hPa WNW 0.2 mph /  0.3 km/h 2.3 mph /  3.7 km/h 87 % 0.00 in /  0 mm
08:53 72.8 °F /  22.7 °C 68.0 °F /  20 °C 30.00 in /  1015.8 hPa NW 0.3 mph /  0.5 km/h 2.3 mph /  3.7 km/h 85 % 0.00 in /  0 mm
08:58 72.9 °F /  22.7 °C 67.8 °F /  19.9 °C 30.00 in /  1015.8 hPa WNW 0.2 mph /  0.3 km/h 1.2 mph /  1.9 km/h 84 % 0.00 in /  0 mm
09:03 73.2 °F /  22.9 °C 68.1 °F /  20.1 °C 30.00 in /  1015.8 hPa Calm   1.2 mph /  1.9 km/h 84 % 0.00 in /  0 mm
09:08 73.4 °F /  23 °C 68.3 °F /  20.2 °C 30.00 in /  1015.8 hPa NW 0.8 mph /  1.3 km/h 3.5 mph /  5.6 km/h 84 % 0.00 in /  0 mm
09:13 73.6 °F /  23.1 °C 68.1 °F /  20.1 °C 30.00 in /  1015.8 hPa North 1.1 mph /  1.8 km/h 3.5 mph /  5.6 km/h 83 % 0.00 in /  0 mm
09:18 73.8 °F /  23.2 °C 67.6 °F /  19.8 °C 30.00 in /  1015.8 hPa WNW 1.4 mph /  2.3 km/h 3.5 mph /  5.6 km/h 81 % 0.00 in /  0 mm
09:23 74.0 °F /  23.3 °C 67.4 °F /  19.7 °C 30.00 in /  1015.8 hPa WNW 1.2 mph /  1.9 km/h 3.5 mph /  5.6 km/h 80 % 0.00 in /  0 mm
09:28 74.2 °F /  23.4 °C 67.6 °F /  19.8 °C 30.00 in /  1015.8 hPa WNW 0.3 mph /  0.5 km/h 2.3 mph /  3.7 km/h 80 % 0.00 in /  0 mm
09:33 74.4 °F /  23.6 °C 67.5 °F /  19.7 °C 30.00 in /  1015.8 hPa NW 1.3 mph /  2.1 km/h 3.5 mph /  5.6 km/h 79 % 0.00 in /  0 mm
09:38 74.6 °F /  23.7 °C 67.3 °F /  19.6 °C 30.00 in /  1015.8 hPa NNW 0.4 mph /  0.6 km/h 2.0 mph /  3.2 km/h 78 % 0.00 in /  0 mm
09:43 74.8 °F /  23.8 °C 66.7 °F /  19.3 °C 30.00 in /  1015.8 hPa NNW 3.1 mph /  5 km/h 3.5 mph /  5.6 km/h 76 % 0.00 in /  0 mm
09:48 75.0 °F /  23.9 °C 66.9 °F /  19.4 °C 30.00 in /  1015.8 hPa WNW 2.5 mph /  4 km/h 3.5 mph /  5.6 km/h 76 % 0.00 in /  0 mm
09:53 75.3 °F /  24.1 °C 67.2 °F /  19.6 °C 30.01 in /  1016.1 hPa WNW 2.6 mph /  4.2 km/h 4.6 mph /  7.4 km/h 76 % 0.00 in /  0 mm
09:58 75.7 °F /  24.3 °C 68.0 °F /  20 °C 30.01 in /  1016.1 hPa NNW 0.1 mph /  0.2 km/h 3.5 mph /  5.6 km/h 77 % 0.00 in /  0 mm
10:03 76.1 °F /  24.5 °C 68.0 °F /  20 °C 30.00 in /  1015.8 hPa WNW 0.2 mph /  0.3 km/h 2.3 mph /  3.7 km/h 76 % 0.00 in /  0 mm
10:08 76.9 °F /  24.9 °C 68.4 °F /  20.2 °C 30.01 in /  1016.1 hPa NW 1.6 mph /  2.6 km/h 3.5 mph /  5.6 km/h 75 % 0.00 in /  0 mm
10:14 77.8 °F /  25.4 °C 69.6 °F /  20.9 °C 30.01 in /  1016.1 hPa NNE 1.7 mph /  2.7 km/h 3.5 mph /  5.6 km/h 76 % 0.00 in /  0 mm
10:18 78.6 °F /  25.9 °C 68.4 °F /  20.2 °C 30.01 in /  1016.1 hPa North 0.4 mph /  0.6 km/h 2.3 mph /  3.7 km/h 71 % 0.00 in /  0 mm
10:23 79.8 °F /  26.6 °C 68.7 °F /  20.4 °C 30.01 in /  1016.1 hPa NNE 2.9 mph /  4.7 km/h 4.6 mph /  7.4 km/h 69 % 0.00 in /  0 mm
10:29 80.7 °F /  27.1 °C 68.7 °F /  20.4 °C 30.01 in /  1016.1 hPa NNW 2.5 mph /  4 km/h 2.5 mph /  4 km/h 67 % 0.00 in /  0 mm
10:34 81.2 °F /  27.3 °C 68.3 °F /  20.2 °C 30.01 in /  1016.1 hPa NNE 2.9 mph /  4.7 km/h 3.5 mph /  5.6 km/h 65 % 0.00 in /  0 mm
10:39 82.3 °F /  27.9 °C 69.4 °F /  20.8 °C 30.01 in /  1016.1 hPa North 2.7 mph /  4.3 km/h 3.5 mph /  5.6 km/h 65 % 0.00 in /  0 mm
10:44 83.2 °F /  28.4 °C 69.3 °F /  20.7 °C 30.00 in /  1015.8 hPa NW 0.6 mph /  1 km/h 2.3 mph /  3.7 km/h 63 % 0.00 in /  0 mm
10:49 84.1 °F /  28.9 °C 69.7 °F /  20.9 °C 30.01 in /  1016.1 hPa NNE 0.8 mph /  1.3 km/h 4.0 mph /  6.4 km/h 62 % 0.00 in /  0 mm
10:54 84.7 °F /  29.3 °C 68.3 °F /  20.2 °C 30.00 in /  1015.8 hPa ENE 0.8 mph /  1.3 km/h 3.5 mph /  5.6 km/h 58 % 0.00 in /  0 mm
10:59 85.2 °F /  29.6 °C 68.8 °F /  20.4 °C 30.00 in /  1015.8 hPa NNE 1.3 mph /  2.1 km/h 2.3 mph /  3.7 km/h 58 % 0.00 in /  0 mm
11:04 85.7 °F /  29.8 °C 68.2 °F /  20.1 °C 30.00 in /  1015.8 hPa Calm   1.2 mph /  1.9 km/h 56 % 0.00 in /  0 mm
11:09 86.1 °F /  30.1 °C 67.5 °F /  19.7 °C 30.00 in /  1015.8 hPa North 1.6 mph /  2.6 km/h 3.5 mph /  5.6 km/h 54 % 0.00 in /  0 mm
11:11 86.2 °F /  30.1 °C 68.1 °F /  20.1 °C 30.00 in /  1015.8 hPa North 1.5 mph /  2.4 km/h 3.5 mph /  5.6 km/h 55 % 0.00 in /  0 mm
11:16 86.6 °F /  30.3 °C 68.0 °F /  20 °C 30.00 in /  1015.8 hPa North 2.8 mph /  4.5 km/h 4.6 mph /  7.4 km/h 54 % 0.00 in /  0 mm
11:21 86.6 °F /  30.3 °C 67.4 °F /  19.7 °C 30.00 in /  1015.8 hPa North 4.8 mph /  7.7 km/h 5.8 mph /  9.3 km/h 53 % 0.00 in /  0 mm
11:26 86.7 °F /  30.4 °C 69.1 °F /  20.6 °C 30.00 in /  1015.8 hPa NE 3.0 mph /  4.8 km/h 4.6 mph /  7.4 km/h 56 % 0.00 in /  0 mm
11:31 86.9 °F /  30.5 °C 68.3 °F /  20.2 °C 30.00 in /  1015.8 hPa NNE 3.8 mph /  6.1 km/h 5.8 mph /  9.3 km/h 54 % 0.00 in /  0 mm
11:36 87.1 °F /  30.6 °C 68.4 °F /  20.2 °C 30.00 in /  1015.8 hPa North 3.0 mph /  4.8 km/h 4.6 mph /  7.4 km/h 54 % 0.00 in /  0 mm
11:41 87.5 °F /  30.8 °C 69.3 °F /  20.7 °C 30.00 in /  1015.8 hPa NNE 1.7 mph /  2.7 km/h 3.5 mph /  5.6 km/h 55 % 0.00 in /  0 mm
11:46 87.9 °F /  31.1 °C 68.6 °F /  20.3 °C 30.00 in /  1015.8 hPa NNE 3.0 mph /  4.8 km/h 4.6 mph /  7.4 km/h 53 % 0.00 in /  0 mm
11:51 88.0 °F /  31.1 °C 68.7 °F /  20.4 °C 30.00 in /  1015.8 hPa NNE 1.7 mph /  2.7 km/h 3.5 mph /  5.6 km/h 53 % 0.00 in /  0 mm
11:56 88.0 °F /  31.1 °C 69.3 °F /  20.7 °C 30.00 in /  1015.8 hPa NNE 3.9 mph /  6.3 km/h 4.6 mph /  7.4 km/h 54 % 0.00 in /  0 mm
12:01 87.8 °F /  31 °C 69.6 °F /  20.9 °C 30.00 in /  1015.8 hPa NNE 2.0 mph /  3.2 km/h 4.6 mph /  7.4 km/h 55 % 0.00 in /  0 mm
12:06 88.0 °F /  31.1 °C 69.3 °F /  20.7 °C 29.99 in /  1015.5 hPa ENE 0.7 mph /  1.1 km/h 3.5 mph /  5.6 km/h 54 % 0.00 in /  0 mm
12:09 88.1 °F /  31.2 °C 68.8 °F /  20.4 °C 30.00 in /  1015.8 hPa ENE 2.2 mph /  3.5 km/h 4.6 mph /  7.4 km/h 53 % 0.00 in /  0 mm
12:14 88.2 °F /  31.2 °C 68.9 °F /  20.5 °C 30.00 in /  1015.8 hPa NE 1.4 mph /  2.3 km/h 3.5 mph /  5.6 km/h 53 % 0.00 in /  0 mm
12:19 88.3 °F /  31.3 °C 69.5 °F /  20.8 °C 29.99 in /  1015.5 hPa ENE 2.0 mph /  3.2 km/h 4.6 mph /  7.4 km/h 54 % 0.00 in /  0 mm
12:24 88.4 °F /  31.3 °C 68.5 °F /  20.3 °C 29.99 in /  1015.5 hPa NE 0.3 mph /  0.5 km/h 2.3 mph /  3.7 km/h 52 % 0.00 in /  0 mm
12:29 88.4 °F /  31.3 °C 69.6 °F /  20.9 °C 29.99 in /  1015.5 hPa North 1.9 mph /  3.1 km/h 3.5 mph /  5.6 km/h 54 % 0.00 in /  0 mm
12:34 88.4 °F /  31.3 °C 69.1 °F /  20.6 °C 29.99 in /  1015.5 hPa North 2.2 mph /  3.5 km/h 3.5 mph /  5.6 km/h 53 % 0.00 in /  0 mm
12:39 88.5 °F /  31.4 °C 69.2 °F /  20.7 °C 29.99 in /  1015.5 hPa NNE 3.5 mph /  5.6 km/h 5.8 mph /  9.3 km/h 53 % 0.00 in /  0 mm
12:44 88.6 °F /  31.4 °C 69.8 °F /  21 °C 29.99 in /  1015.5 hPa NE 0.7 mph /  1.1 km/h 3.5 mph /  5.6 km/h 54 % 0.00 in /  0 mm
12:49 89.1 °F /  31.7 °C 69.2 °F /  20.7 °C 29.99 in /  1015.5 hPa NNE 2.0 mph /  3.2 km/h 4.0 mph /  6.4 km/h 52 % 0.00 in /  0 mm
12:54 89.3 °F /  31.8 °C 69.4 °F /  20.8 °C 29.99 in /  1015.5 hPa NNE 0.7 mph /  1.1 km/h 3.5 mph /  5.6 km/h 52 % 0.00 in /  0 mm
12:59 89.6 °F /  32 °C 70.2 °F /  21.2 °C 29.99 in /  1015.5 hPa North 1.5 mph /  2.4 km/h 3.5 mph /  5.6 km/h 53 % 0.00 in /  0 mm
13:05 89.8 °F /  32.1 °C 70.4 °F /  21.3 °C 29.99 in /  1015.5 hPa North 0.7 mph /  1.1 km/h 3.5 mph /  5.6 km/h 53 % 0.00 in /  0 mm
13:10 90.1 °F /  32.3 °C 70.1 °F /  21.2 °C 29.99 in /  1015.5 hPa North 0.2 mph /  0.3 km/h 1.2 mph /  1.9 km/h 52 % 0.00 in /  0 mm
13:15 90.4 °F /  32.4 °C 70.4 °F /  21.3 °C 29.99 in /  1015.5 hPa NNE 1.1 mph /  1.8 km/h 3.5 mph /  5.6 km/h 52 % 0.00 in /  0 mm
13:20 90.6 °F /  32.6 °C 70.0 °F /  21.1 °C 29.99 in /  1015.5 hPa NW 1.8 mph /  2.9 km/h 3.5 mph /  5.6 km/h 51 % 0.00 in /  0 mm
13:25 90.8 °F /  32.7 °C 70.2 °F /  21.2 °C 29.99 in /  1015.5 hPa North 2.8 mph /  4.5 km/h 4.0 mph /  6.4 km/h 51 % 0.00 in /  0 mm
13:30 91.0 °F /  32.8 °C 69.2 °F /  20.7 °C 29.98 in /  1015.1 hPa NNE 0.5 mph /  0.8 km/h 3.5 mph /  5.6 km/h 49 % 0.00 in /  0 mm
13:35 91.2 °F /  32.9 °C 69.4 °F /  20.8 °C 29.98 in /  1015.1 hPa NE 0.5 mph /  0.8 km/h 3.5 mph /  5.6 km/h 49 % 0.00 in /  0 mm
13:37 91.2 °F /  32.9 °C 69.4 °F /  20.8 °C 29.98 in /  1015.1 hPa NNE 2.6 mph /  4.2 km/h 5.0 mph /  8 km/h 49 % 0.00 in /  0 mm
13:42 91.2 °F /  32.9 °C 68.8 °F /  20.4 °C 29.98 in /  1015.1 hPa North 1.3 mph /  2.1 km/h 3.5 mph /  5.6 km/h 48 % 0.00 in /  0 mm
13:47 91.5 °F /  33.1 °C 70.2 °F /  21.2 °C 29.98 in /  1015.1 hPa North 1.3 mph /  2.1 km/h 3.5 mph /  5.6 km/h 50 % 0.00 in /  0 mm
13:52 91.7 °F /  33.2 °C 70.4 °F /  21.3 °C 29.98 in /  1015.1 hPa NW 1.1 mph /  1.8 km/h 3.0 mph /  4.8 km/h 50 % 0.00 in /  0 mm
13:57 92.0 °F /  33.3 °C 71.9 °F /  22.2 °C 29.98 in /  1015.1 hPa NW 0.4 mph /  0.6 km/h 1.2 mph /  1.9 km/h 52 % 0.00 in /  0 mm
14:02 92.2 °F /  33.4 °C 69.7 °F /  20.9 °C 29.98 in /  1015.1 hPa NNE 0.5 mph /  0.8 km/h 3.5 mph /  5.6 km/h 48 % 0.00 in /  0 mm
14:07 92.3 °F /  33.5 °C 70.4 °F /  21.3 °C 29.98 in /  1015.1 hPa NNW 1.9 mph /  3.1 km/h 3.5 mph /  5.6 km/h 49 % 0.00 in /  0 mm
14:12 92.6 °F /  33.7 °C 69.4 °F /  20.8 °C 29.98 in /  1015.1 hPa North 2.1 mph /  3.4 km/h 3.5 mph /  5.6 km/h 47 % 0.00 in /  0 mm
14:17 92.7 °F /  33.7 °C 67.6 °F /  19.8 °C 29.98 in /  1015.1 hPa NNW 0.3 mph /  0.5 km/h 3.5 mph /  5.6 km/h 44 % 0.00 in /  0 mm
14:22 92.9 °F /  33.8 °C 66.4 °F /  19.1 °C 29.98 in /  1015.1 hPa NW 1.5 mph /  2.4 km/h 3.5 mph /  5.6 km/h 42 % 0.00 in /  0 mm
14:27 93.2 °F /  34 °C 66.7 °F /  19.3 °C 29.97 in /  1014.8 hPa NW 1.4 mph /  2.3 km/h 3.5 mph /  5.6 km/h 42 % 0.00 in /  0 mm
14:33 93.5 °F /  34.2 °C 67.0 °F /  19.4 °C 29.97 in /  1014.8 hPa NW 0.2 mph /  0.3 km/h 1.2 mph /  1.9 km/h 42 % 0.00 in /  0 mm
14:38 93.8 °F /  34.3 °C 65.1 °F /  18.4 °C 29.97 in /  1014.8 hPa NW 0.1 mph /  0.2 km/h 2.3 mph /  3.7 km/h 39 % 0.00 in /  0 mm
14:43 94.0 °F /  34.4 °C 63.8 °F /  17.7 °C 29.97 in /  1014.8 hPa NW 1.0 mph /  1.6 km/h 3.5 mph /  5.6 km/h 37 % 0.00 in /  0 mm
14:48 94.1 °F /  34.5 °C 64.6 °F /  18.1 °C 29.97 in /  1014.8 hPa NNW 0.7 mph /  1.1 km/h 2.3 mph /  3.7 km/h 38 % 0.00 in /  0 mm
14:53 94.3 °F /  34.6 °C 64.8 °F /  18.2 °C 29.97 in /  1014.8 hPa North 3.2 mph /  5.1 km/h 4.6 mph /  7.4 km/h 38 % 0.00 in /  0 mm
14:58 94.3 °F /  34.6 °C 64.8 °F /  18.2 °C 29.96 in /  1014.4 hPa North 0.8 mph /  1.3 km/h 2.3 mph /  3.7 km/h 38 % 0.00 in /  0 mm
15:03 94.3 °F /  34.6 °C 64.8 °F /  18.2 °C 29.96 in /  1014.4 hPa NNE 2.1 mph /  3.4 km/h 4.0 mph /  6.4 km/h 38 % 0.00 in /  0 mm
15:08 94.1 °F /  34.5 °C 66.1 °F /  18.9 °C 29.96 in /  1014.4 hPa North 2.4 mph /  3.9 km/h 3.5 mph /  5.6 km/h 40 % 0.00 in /  0 mm
15:13 93.9 °F /  34.4 °C 65.9 °F /  18.8 °C 29.96 in /  1014.4 hPa North 1.9 mph /  3.1 km/h 3.5 mph /  5.6 km/h 40 % 0.00 in /  0 mm
15:18 93.8 °F /  34.3 °C 67.2 °F /  19.6 °C 29.96 in /  1014.4 hPa North 2.3 mph /  3.7 km/h 3.5 mph /  5.6 km/h 42 % 0.00 in /  0 mm
15:23 93.5 °F /  34.2 °C 65.6 °F /  18.7 °C 29.96 in /  1014.4 hPa NNE 1.9 mph /  3.1 km/h 3.5 mph /  5.6 km/h 40 % 0.00 in /  0 mm
15:28 93.5 °F /  34.2 °C 67.0 °F /  19.4 °C 29.96 in /  1014.4 hPa NNW 0.1 mph /  0.2 km/h 2.3 mph /  3.7 km/h 42 % 0.00 in /  0 mm
15:33 93.6 °F /  34.2 °C 65.6 °F /  18.7 °C 29.96 in /  1014.4 hPa NW 2.6 mph /  4.2 km/h 4.0 mph /  6.4 km/h 40 % 0.00 in /  0 mm
15:35 93.7 °F /  34.3 °C 65.0 °F /  18.3 °C 29.96 in /  1014.4 hPa NNW 1.1 mph /  1.8 km/h 3.5 mph /  5.6 km/h 39 % 0.00 in /  0 mm
15:41 93.8 °F /  34.3 °C 66.5 °F /  19.2 °C 29.96 in /  1014.4 hPa NW 1.0 mph /  1.6 km/h 4.0 mph /  6.4 km/h 41 % 0.00 in /  0 mm
15:45 93.6 °F /  34.2 °C 64.9 °F /  18.3 °C 29.96 in /  1014.4 hPa NE 4.0 mph /  6.4 km/h 4.6 mph /  7.4 km/h 39 % 0.00 in /  0 mm
15:51 93.2 °F /  34 °C 67.4 °F /  19.7 °C 29.96 in /  1014.4 hPa North 4.0 mph /  6.4 km/h 4.6 mph /  7.4 km/h 43 % 0.00 in /  0 mm
15:57 93.1 °F /  33.9 °C 65.9 °F /  18.8 °C 29.95 in /  1014.1 hPa North 0.9 mph /  1.4 km/h 3.5 mph /  5.6 km/h 41 % 0.00 in /  0 mm
16:02 93.1 °F /  33.9 °C 63.7 °F /  17.6 °C 29.96 in /  1014.4 hPa North 1.7 mph /  2.7 km/h 3.5 mph /  5.6 km/h 38 % 0.00 in /  0 mm
16:07 92.9 °F /  33.8 °C 65.7 °F /  18.7 °C 29.96 in /  1014.4 hPa NNE 2.9 mph /  4.7 km/h 4.6 mph /  7.4 km/h 41 % 0.00 in /  0 mm
16:09 92.8 °F /  33.8 °C 67.0 °F /  19.4 °C 29.95 in /  1014.1 hPa NNE 3.2 mph /  5.1 km/h 4.6 mph /  7.4 km/h 43 % 0.00 in /  0 mm
16:11 92.6 °F /  33.7 °C 66.8 °F /  19.3 °C 29.95 in /  1014.1 hPa NNE 3.6 mph /  5.8 km/h 6.9 mph /  11.1 km/h 43 % 0.00 in /  0 mm
16:16 92.2 °F /  33.4 °C 65.8 °F /  18.8 °C 29.95 in /  1014.1 hPa NNE 3.2 mph /  5.1 km/h 4.6 mph /  7.4 km/h 42 % 0.00 in /  0 mm
16:21 92.1 °F /  33.4 °C 65.7 °F /  18.7 °C 29.95 in /  1014.1 hPa NW 1.6 mph /  2.6 km/h 4.6 mph /  7.4 km/h 42 % 0.00 in /  0 mm
16:26 92.1 °F /  33.4 °C 65.7 °F /  18.7 °C 29.95 in /  1014.1 hPa North 1.7 mph /  2.7 km/h 3.5 mph /  5.6 km/h 42 % 0.00 in /  0 mm
16:27 92.1 °F /  33.4 °C 65.7 °F /  18.7 °C 29.95 in /  1014.1 hPa North 1.4 mph /  2.3 km/h 3.5 mph /  5.6 km/h 42 % 0.00 in /  0 mm
16:32 92.3 °F /  33.5 °C 65.9 °F /  18.8 °C 29.95 in /  1014.1 hPa North 0.5 mph /  0.8 km/h 3.5 mph /  5.6 km/h 42 % 0.00 in /  0 mm
16:37 92.4 °F /  33.6 °C 66.0 °F /  18.9 °C 29.95 in /  1014.1 hPa North 1.0 mph /  1.6 km/h 3.5 mph /  5.6 km/h 42 % 0.00 in /  0 mm
16:42 92.7 °F /  33.7 °C 64.8 °F /  18.2 °C 29.95 in /  1014.1 hPa North 1.3 mph /  2.1 km/h 3.5 mph /  5.6 km/h 40 % 0.00 in /  0 mm
16:47 92.6 °F /  33.7 °C 64.0 °F /  17.8 °C 29.95 in /  1014.1 hPa NNE 1.1 mph /  1.8 km/h 3.5 mph /  5.6 km/h 39 % 0.00 in /  0 mm
16:52 92.7 °F /  33.7 °C 64.8 °F /  18.2 °C 29.95 in /  1014.1 hPa WNW 1.2 mph /  1.9 km/h 4.0 mph /  6.4 km/h 40 % 0.00 in /  0 mm
17:02 92.9 °F /  33.8 °C 62.0 °F /  16.7 °C 29.95 in /  1014.1 hPa WSW 0.1 mph /  0.2 km/h 1.2 mph /  1.9 km/h 36 % 0.00 in /  0 mm
17:07 92.8 °F /  33.8 °C 62.7 °F /  17.1 °C 29.95 in /  1014.1 hPa WSW 0.5 mph /  0.8 km/h 2.3 mph /  3.7 km/h 37 % 0.00 in /  0 mm
17:12 92.7 °F /  33.7 °C 61.8 °F /  16.6 °C 29.95 in /  1014.1 hPa West 0.5 mph /  0.8 km/h 1.2 mph /  1.9 km/h 36 % 0.00 in /  0 mm
17:14 92.6 °F /  33.7 °C 61.7 °F /  16.5 °C 29.95 in /  1014.1 hPa West 0.2 mph /  0.3 km/h 1.2 mph /  1.9 km/h 36 % 0.00 in /  0 mm
17:19 92.5 °F /  33.6 °C 62.4 °F /  16.9 °C 29.95 in /  1014.1 hPa Calm   2.3 mph /  3.7 km/h 37 % 0.00 in /  0 mm
17:24 92.4 °F /  33.6 °C 62.4 °F /  16.9 °C 29.95 in /  1014.1 hPa West 0.4 mph /  0.6 km/h 1.2 mph /  1.9 km/h 37 % 0.00 in /  0 mm
17:29 92.3 °F /  33.5 °C 61.5 °F /  16.4 °C 29.95 in /  1014.1 hPa West 0.1 mph /  0.2 km/h 1.2 mph /  1.9 km/h 36 % 0.00 in /  0 mm
17:34 92.1 °F /  33.4 °C 62.8 °F /  17.1 °C 29.94 in /  1013.8 hPa West 0.1 mph /  0.2 km/h 1.2 mph /  1.9 km/h 38 % 0.00 in /  0 mm
17:39 91.9 °F /  33.3 °C 62.7 °F /  17.1 °C 29.94 in /  1013.8 hPa West 1.0 mph /  1.6 km/h 3.5 mph /  5.6 km/h 38 % 0.00 in /  0 mm
17:44 91.7 °F /  33.2 °C 64.7 °F /  18.2 °C 29.94 in /  1013.8 hPa West 1.2 mph /  1.9 km/h 1.2 mph /  1.9 km/h 41 % 0.00 in /  0 mm
17:49 91.5 °F /  33.1 °C 63.8 °F /  17.7 °C 29.94 in /  1013.8 hPa West 0.9 mph /  1.4 km/h 3.5 mph /  5.6 km/h 40 % 0.00 in /  0 mm
17:54 91.2 °F /  32.9 °C 63.5 °F /  17.5 °C 29.94 in /  1013.8 hPa Calm   1.0 mph /  1.6 km/h 40 % 0.00 in /  0 mm
17:59 91.0 °F /  32.8 °C 64.7 °F /  18.2 °C 29.94 in /  1013.8 hPa Calm     42 % 0.00 in /  0 mm
18:04 90.8 °F /  32.7 °C 64.5 °F /  18.1 °C 29.94 in /  1013.8 hPa Calm   2.3 mph /  3.7 km/h 42 % 0.00 in /  0 mm
18:09 90.5 °F /  32.5 °C 65.6 °F /  18.7 °C 29.94 in /  1013.8 hPa West 0.3 mph /  0.5 km/h 1.2 mph /  1.9 km/h 44 % 0.00 in /  0 mm
18:14 90.2 °F /  32.3 °C 66.0 °F /  18.9 °C 29.94 in /  1013.8 hPa Calm     45 % 0.00 in /  0 mm
18:19 89.9 °F /  32.2 °C 65.7 °F /  18.7 °C 29.94 in /  1013.8 hPa Calm     45 % 0.00 in /  0 mm
18:25 89.5 °F /  31.9 °C 64.7 °F /  18.2 °C 29.94 in /  1013.8 hPa Calm     44 % 0.00 in /  0 mm
18:30 89.3 °F /  31.8 °C 64.5 °F /  18.1 °C 29.94 in /  1013.8 hPa Calm   1.2 mph /  1.9 km/h 44 % 0.00 in /  0 mm
18:35 89.1 °F /  31.7 °C 66.2 °F /  19 °C 29.95 in /  1014.1 hPa SE 1.9 mph /  3.1 km/h 3.0 mph /  4.8 km/h 47 % 0.00 in /  0 mm
18:40 88.6 °F /  31.4 °C 67.0 °F /  19.4 °C 29.94 in /  1013.8 hPa SE 2.5 mph /  4 km/h 5.8 mph /  9.3 km/h 49 % 0.00 in /  0 mm
18:45 87.9 °F /  31.1 °C 67.5 °F /  19.7 °C 29.95 in /  1014.1 hPa SSE 2.3 mph /  3.7 km/h 5.8 mph /  9.3 km/h 51 % 0.00 in /  0 mm
18:50 87.5 °F /  30.8 °C 67.7 °F /  19.8 °C 29.95 in /  1014.1 hPa Calm   1.2 mph /  1.9 km/h 52 % 0.00 in /  0 mm
18:55 87.1 °F /  30.6 °C 67.3 °F /  19.6 °C 29.95 in /  1014.1 hPa Calm   1.2 mph /  1.9 km/h 52 % 0.00 in /  0 mm
19:00 86.7 °F /  30.4 °C 67.0 °F /  19.4 °C 29.95 in /  1014.1 hPa SE 2.1 mph /  3.4 km/h 4.6 mph /  7.4 km/h 52 % 0.00 in /  0 mm
19:05 86.2 °F /  30.1 °C 67.1 °F /  19.5 °C 29.95 in /  1014.1 hPa SE 0.3 mph /  0.5 km/h 1.0 mph /  1.6 km/h 53 % 0.00 in /  0 mm
19:07 86.0 °F /  30 °C 67.4 °F /  19.7 °C 29.95 in /  1014.1 hPa Calm     54 % 0.00 in /  0 mm
19:12 85.5 °F /  29.7 °C 67.5 °F /  19.7 °C 29.95 in /  1014.1 hPa SSE 0.2 mph /  0.3 km/h 1.2 mph /  1.9 km/h 55 % 0.00 in /  0 mm
19:17 85.1 °F /  29.5 °C 67.6 °F /  19.8 °C 29.95 in /  1014.1 hPa SSE 0.1 mph /  0.2 km/h 1.2 mph /  1.9 km/h 56 % 0.00 in /  0 mm
19:22 84.8 °F /  29.3 °C 67.4 °F /  19.7 °C 29.95 in /  1014.1 hPa Calm   1.2 mph /  1.9 km/h 56 % 0.00 in /  0 mm
19:27 84.5 °F /  29.2 °C 67.6 °F /  19.8 °C 29.96 in /  1014.4 hPa SSE 0.2 mph /  0.3 km/h 1.2 mph /  1.9 km/h 57 % 0.00 in /  0 mm
19:32 84.3 °F /  29.1 °C 67.4 °F /  19.7 °C 29.96 in /  1014.4 hPa Calm     57 % 0.00 in /  0 mm
19:37 84.1 °F /  28.9 °C 68.7 °F /  20.4 °C 29.96 in /  1014.4 hPa SE 0.1 mph /  0.2 km/h 3.5 mph /  5.6 km/h 60 % 0.00 in /  0 mm
19:42 83.8 °F /  28.8 °C 68.9 °F /  20.5 °C 29.96 in /  1014.4 hPa SE 1.0 mph /  1.6 km/h 4.0 mph /  6.4 km/h 61 % 0.00 in /  0 mm
19:47 83.5 °F /  28.6 °C 69.1 °F /  20.6 °C 29.96 in /  1014.4 hPa SSE 0.2 mph /  0.3 km/h 1.2 mph /  1.9 km/h 62 % 0.00 in /  0 mm
19:52 83.1 °F /  28.4 °C 68.7 °F /  20.4 °C 29.97 in /  1014.8 hPa SW 0.5 mph /  0.8 km/h 2.0 mph /  3.2 km/h 62 % 0.00 in /  0 mm
19:57 82.5 °F /  28.1 °C 68.6 °F /  20.3 °C 29.97 in /  1014.8 hPa SSW 0.1 mph /  0.2 km/h 3.5 mph /  5.6 km/h 63 % 0.00 in /  0 mm
20:02 82.2 °F /  27.9 °C 68.8 °F /  20.4 °C 29.97 in /  1014.8 hPa Calm     64 % 0.00 in /  0 mm
20:07 81.9 °F /  27.7 °C 69.0 °F /  20.6 °C 29.97 in /  1014.8 hPa SSW 0.4 mph /  0.6 km/h 2.3 mph /  3.7 km/h 65 % 0.00 in /  0 mm
20:12 81.6 °F /  27.6 °C 68.7 °F /  20.4 °C 29.97 in /  1014.8 hPa SSW 0.1 mph /  0.2 km/h 1.2 mph /  1.9 km/h 65 % 0.00 in /  0 mm
20:17 81.3 °F /  27.4 °C 68.4 °F /  20.2 °C 29.97 in /  1014.8 hPa SSW 0.1 mph /  0.2 km/h 1.2 mph /  1.9 km/h 65 % 0.00 in /  0 mm
20:22 81.0 °F /  27.2 °C 68.6 °F /  20.3 °C 29.97 in /  1014.8 hPa Calm   1.2 mph /  1.9 km/h 66 % 0.00 in /  0 mm
20:27 80.7 °F /  27.1 °C 68.3 °F /  20.2 °C 29.97 in /  1014.8 hPa SW 0.3 mph /  0.5 km/h 1.2 mph /  1.9 km/h 66 % 0.00 in /  0 mm
20:32 80.4 °F /  26.9 °C 68.0 °F /  20 °C 29.97 in /  1014.8 hPa Calm   1.2 mph /  1.9 km/h 66 % 0.00 in /  0 mm
20:38 80.1 °F /  26.7 °C 68.2 °F /  20.1 °C 29.97 in /  1014.8 hPa Calm   1.2 mph /  1.9 km/h 67 % 0.00 in /  0 mm
20:43 79.8 °F /  26.6 °C 67.9 °F /  19.9 °C 29.97 in /  1014.8 hPa SW 0.1 mph /  0.2 km/h 2.3 mph /  3.7 km/h 67 % 0.00 in /  0 mm
20:48 79.6 °F /  26.4 °C 67.7 °F /  19.8 °C 29.97 in /  1014.8 hPa SW 0.1 mph /  0.2 km/h   67 % 0.00 in /  0 mm
20:53 79.4 °F /  26.3 °C 67.9 °F /  19.9 °C 29.97 in /  1014.8 hPa SW 0.4 mph /  0.6 km/h 2.3 mph /  3.7 km/h 68 % 0.00 in /  0 mm
20:58 79.1 °F /  26.2 °C 67.6 °F /  19.8 °C 29.97 in /  1014.8 hPa Calm     68 % 0.00 in /  0 mm
21:03 78.8 °F /  26 °C 67.3 °F /  19.6 °C 29.97 in /  1014.8 hPa Calm   2.3 mph /  3.7 km/h 68 % 0.00 in /  0 mm
21:08 78.6 °F /  25.9 °C 67.6 °F /  19.8 °C 29.98 in /  1015.1 hPa SW 0.3 mph /  0.5 km/h 2.3 mph /  3.7 km/h 69 % 0.00 in /  0 mm
21:13 78.3 °F /  25.7 °C 67.3 °F /  19.6 °C 29.98 in /  1015.1 hPa SW 0.1 mph /  0.2 km/h 1.2 mph /  1.9 km/h 69 % 0.00 in /  0 mm
21:18 78.1 °F /  25.6 °C 67.5 °F /  19.7 °C 29.98 in /  1015.1 hPa SW 0.3 mph /  0.5 km/h 1.2 mph /  1.9 km/h 70 % 0.00 in /  0 mm
21:23 78.0 °F /  25.6 °C 67.4 °F /  19.7 °C 29.98 in /  1015.1 hPa SW 0.2 mph /  0.3 km/h 2.3 mph /  3.7 km/h 70 % 0.00 in /  0 mm
21:28 77.8 °F /  25.4 °C 67.2 °F /  19.6 °C 29.98 in /  1015.1 hPa SSW 0.4 mph /  0.6 km/h 2.3 mph /  3.7 km/h 70 % 0.00 in /  0 mm
21:34 77.6 °F /  25.3 °C 67.0 °F /  19.4 °C 29.98 in /  1015.1 hPa Calm   1.2 mph /  1.9 km/h 70 % 0.00 in /  0 mm
21:39 77.5 °F /  25.3 °C 66.5 °F /  19.2 °C 29.98 in /  1015.1 hPa Calm   2.3 mph /  3.7 km/h 69 % 0.00 in /  0 mm
21:44 77.3 °F /  25.2 °C 66.3 °F /  19.1 °C 29.98 in /  1015.1 hPa SSW 0.2 mph /  0.3 km/h 1.2 mph /  1.9 km/h 69 % 0.00 in /  0 mm
21:49 77.1 °F /  25.1 °C 66.1 °F /  18.9 °C 29.98 in /  1015.1 hPa SSW 0.2 mph /  0.3 km/h 2.3 mph /  3.7 km/h 69 % 0.00 in /  0 mm
21:54 77.0 °F /  25 °C 66.0 °F /  18.9 °C 29.98 in /  1015.1 hPa SSW 0.3 mph /  0.5 km/h 2.3 mph /  3.7 km/h 69 % 0.00 in /  0 mm
21:59 76.8 °F /  24.9 °C 66.3 °F /  19.1 °C 29.98 in /  1015.1 hPa South 0.3 mph /  0.5 km/h 1.2 mph /  1.9 km/h 70 % 0.00 in /  0 mm
22:04 76.8 °F /  24.9 °C 66.3 °F /  19.1 °C 29.98 in /  1015.1 hPa South 0.5 mph /  0.8 km/h 2.3 mph /  3.7 km/h 70 % 0.00 in /  0 mm
22:09 76.6 °F /  24.8 °C 66.1 °F /  18.9 °C 29.98 in /  1015.1 hPa South 0.2 mph /  0.3 km/h 1.2 mph /  1.9 km/h 70 % 0.00 in /  0 mm
22:14 76.5 °F /  24.7 °C 66.0 °F /  18.9 °C 29.98 in /  1015.1 hPa South 0.2 mph /  0.3 km/h 1.2 mph /  1.9 km/h 70 % 0.00 in /  0 mm
22:19 76.5 °F /  24.7 °C 66.0 °F /  18.9 °C 29.99 in /  1015.5 hPa Calm   1.2 mph /  1.9 km/h 70 % 0.00 in /  0 mm
22:24 76.4 °F /  24.7 °C 65.9 °F /  18.8 °C 29.98 in /  1015.1 hPa SW 0.9 mph /  1.4 km/h 2.3 mph /  3.7 km/h 70 % 0.00 in /  0 mm
22:29 76.3 °F /  24.6 °C 65.8 °F /  18.8 °C 29.99 in /  1015.5 hPa SW 0.6 mph /  1 km/h 2.3 mph /  3.7 km/h 70 % 0.00 in /  0 mm
22:34 76.2 °F /  24.6 °C 66.1 °F /  18.9 °C 29.99 in /  1015.5 hPa Calm   1.2 mph /  1.9 km/h 71 % 0.00 in /  0 mm
22:39 76.2 °F /  24.6 °C 66.1 °F /  18.9 °C 29.98 in /  1015.1 hPa SSW 0.2 mph /  0.3 km/h 1.2 mph /  1.9 km/h 71 % 0.00 in /  0 mm
22:49 76.2 °F /  24.6 °C 66.1 °F /  18.9 °C 29.98 in /  1015.1 hPa SSW 0.5 mph /  0.8 km/h 1.2 mph /  1.9 km/h 71 % 0.00 in /  0 mm
22:54 76.1 °F /  24.5 °C 66.0 °F /  18.9 °C 29.99 in /  1015.5 hPa SSW 0.2 mph /  0.3 km/h 3.5 mph /  5.6 km/h 71 % 0.00 in /  0 mm
22:59 76.0 °F /  24.4 °C 65.9 °F /  18.8 °C 29.99 in /  1015.5 hPa SSW 0.5 mph /  0.8 km/h 3.5 mph /  5.6 km/h 71 % 0.00 in /  0 mm
23:04 75.9 °F /  24.4 °C 65.8 °F /  18.8 °C 29.99 in /  1015.5 hPa WNW 0.5 mph /  0.8 km/h 2.3 mph /  3.7 km/h 71 % 0.00 in /  0 mm
23:09 75.8 °F /  24.3 °C 65.7 °F /  18.7 °C 29.99 in /  1015.5 hPa West 0.2 mph /  0.3 km/h 1.2 mph /  1.9 km/h 71 % 0.00 in /  0 mm
23:14 75.8 °F /  24.3 °C 65.7 °F /  18.7 °C 29.99 in /  1015.5 hPa SW 0.5 mph /  0.8 km/h 3.5 mph /  5.6 km/h 71 % 0.00 in /  0 mm
23:19 75.7 °F /  24.3 °C 66.0 °F /  18.9 °C 29.99 in /  1015.5 hPa SW 0.2 mph /  0.3 km/h 1.2 mph /  1.9 km/h 72 % 0.00 in /  0 mm
23:24 75.7 °F /  24.3 °C 66.0 °F /  18.9 °C 29.99 in /  1015.5 hPa SW 0.5 mph /  0.8 km/h 3.0 mph /  4.8 km/h 72 % 0.00 in /  0 mm
23:29 75.6 °F /  24.2 °C 65.9 °F /  18.8 °C 29.99 in /  1015.5 hPa Calm     72 % 0.00 in /  0 mm
23:34 75.6 °F /  24.2 °C 66.7 °F /  19.3 °C 29.99 in /  1015.5 hPa Calm   1.2 mph /  1.9 km/h 74 % 0.00 in /  0 mm
23:39 75.5 °F /  24.2 °C 66.6 °F /  19.2 °C 29.99 in /  1015.5 hPa South 0.3 mph /  0.5 km/h 2.3 mph /  3.7 km/h 74 % 0.00 in /  0 mm
23:44 75.5 °F /  24.2 °C 67.0 °F /  19.4 °C 29.99 in /  1015.5 hPa South 0.6 mph /  1 km/h 2.3 mph /  3.7 km/h 75 % 0.00 in /  0 mm
23:49 75.4 °F /  24.1 °C 66.9 °F /  19.4 °C 29.99 in /  1015.5 hPa Calm   1.2 mph /  1.9 km/h 75 % 0.00 in /  0 mm
23:54 75.4 °F /  24.1 °C 66.9 °F /  19.4 °C 29.99 in /  1015.5 hPa Calm   2.3 mph /  3.7 km/h 75 % 0.00 in /  0 mm
23:59 75.3 °F /  24.1 °C 67.6 °F /  19.8 °C 29.99 in /  1015.5 hPa SW 0.3 mph /  0.5 km/h 1.0 mph /  1.6 km/h 77 % 0.00 in /  0 mm
Crab Meadow Weather
Compliments of Weather Underground - 3 mb

Script developed by  Jim McMurry - jmcmurry@mwt.net Adapted for the template by  Wim van der Kuil - Leuven-Template.eu

Recycling: An estimated 80,000,000 Hershey's Kisses are wrapped each day, using enough aluminum foil to cover over 50 acres of space -- that's almost 40 football fields. All that foil is recyclable, but not many people realize it.